sensor_id;sensor_type;location;lat;lon;timestamp;temperature;humidity
43227;DHT22;28839;52.404;9.808;2024-02-04T00:00:29;8.40;99.90
43227;DHT22;28839;52.404;9.808;2024-02-04T00:07:24;8.40;99.90
43227;DHT22;28839;52.404;9.808;2024-02-04T00:14:18;8.20;99.90
43227;DHT22;28839;52.404;9.808;2024-02-04T00:21:12;8.30;99.90
43227;DHT22;28839;52.404;9.808;2024-02-04T00:28:07;8.30;99.90
43227;DHT22;28839;52.404;9.808;2024-02-04T00:35:04;8.30;99.90
43227;DHT22;28839;52.404;9.808;2024-02-04T00:41:58;8.30;99.90
43227;DHT22;28839;52.404;9.808;2024-02-04T00:48:53;8.10;99.90
43227;DHT22;28839;52.404;9.808;2024-02-04T00:55:47;8.20;99.90
43227;DHT22;28839;52.404;9.808;2024-02-04T01:02:41;8.00;99.90
43227;DHT22;28839;52.404;9.808;2024-02-04T01:09:36;7.90;99.90
43227;DHT22;28839;52.404;9.808;2024-02-04T01:16:30;8.00;99.90
43227;DHT22;28839;52.404;9.808;2024-02-04T01:23:24;7.90;99.90
43227;DHT22;28839;52.404;9.808;2024-02-04T01:30:19;7.90;99.90
43227;DHT22;28839;52.404;9.808;2024-02-04T01:37:13;7.80;99.90
43227;DHT22;28839;52.404;9.808;2024-02-04T01:44:07;7.80;99.90
43227;DHT22;28839;52.404;9.808;2024-02-04T01:51:02;7.90;99.90
43227;DHT22;28839;52.404;9.808;2024-02-04T01:57:56;8.00;99.90
43227;DHT22;28839;52.404;9.808;2024-02-04T02:04:51;8.00;99.90
43227;DHT22;28839;52.404;9.808;2024-02-04T02:12:01;8.00;99.90
43227;DHT22;28839;52.404;9.808;2024-02-04T02:19:00;8.10;99.90
43227;DHT22;28839;52.404;9.808;2024-02-04T02:25:58;8.20;99.90
43227;DHT22;28839;52.404;9.808;2024-02-04T02:32:53;8.20;99.90
43227;DHT22;28839;52.404;9.808;2024-02-04T02:39:49;8.10;99.90
43227;DHT22;28839;52.404;9.808;2024-02-04T02:46:49;8.30;99.90
43227;DHT22;28839;52.404;9.808;2024-02-04T02:53:43;8.40;99.90
43227;DHT22;28839;52.404;9.808;2024-02-04T03:00:37;8.40;99.90
43227;DHT22;28839;52.404;9.808;2024-02-04T03:07:32;8.40;99.90
43227;DHT22;28839;52.404;9.808;2024-02-04T03:14:26;8.40;99.90
43227;DHT22;28839;52.404;9.808;2024-02-04T03:21:20;8.40;99.90
43227;DHT22;28839;52.404;9.808;2024-02-04T03:28:15;8.40;99.90
43227;DHT22;28839;52.404;9.808;2024-02-04T03:35:09;8.40;99.90
43227;DHT22;28839;52.404;9.808;2024-02-04T03:42:03;8.30;99.90
43227;DHT22;28839;52.404;9.808;2024-02-04T03:48:59;8.30;99.90
43227;DHT22;28839;52.404;9.808;2024-02-04T03:55:52;8.30;99.90
43227;DHT22;28839;52.404;9.808;2024-02-04T04:02:46;8.30;99.90
43227;DHT22;28839;52.404;9.808;2024-02-04T04:09:41;8.30;99.90
43227;DHT22;28839;52.404;9.808;2024-02-04T04:16:35;8.20;99.90
43227;DHT22;28839;52.404;9.808;2024-02-04T04:23:29;8.00;99.90
43227;DHT22;28839;52.404;9.808;2024-02-04T04:30:24;8.00;99.90
43227;DHT22;28839;52.404;9.808;2024-02-04T04:37:18;8.00;99.90
43227;DHT22;28839;52.404;9.808;2024-02-04T04:44:11;7.90;99.90
43227;DHT22;28839;52.404;9.808;2024-02-04T04:51:10;7.90;99.90
43227;DHT22;28839;52.404;9.808;2024-02-04T04:58:04;7.80;99.90
43227;DHT22;28839;52.404;9.808;2024-02-04T05:04:57;7.70;99.90
43227;DHT22;28839;52.404;9.808;2024-02-04T05:11:53;7.60;99.90
43227;DHT22;28839;52.404;9.808;2024-02-04T05:18:46;7.60;99.90
43227;DHT22;28839;52.404;9.808;2024-02-04T05:25:40;7.60;99.90
43227;DHT22;28839;52.404;9.808;2024-02-04T05:32:35;7.60;99.90
43227;DHT22;28839;52.404;9.808;2024-02-04T05:39:29;7.60;99.90
43227;DHT22;28839;52.404;9.808;2024-02-04T05:46:23;7.70;99.90
43227;DHT22;28839;52.404;9.808;2024-02-04T05:53:18;7.70;99.90
43227;DHT22;28839;52.404;9.808;2024-02-04T06:00:12;7.70;99.90
43227;DHT22;28839;52.404;9.808;2024-02-04T06:07:06;7.80;99.90
43227;DHT22;28839;52.404;9.808;2024-02-04T06:14:01;7.70;99.90
43227;DHT22;28839;52.404;9.808;2024-02-04T06:20:55;7.80;99.90
43227;DHT22;28839;52.404;9.808;2024-02-04T06:27:49;7.90;99.90
43227;DHT22;28839;52.404;9.808;2024-02-04T06:34:44;8.00;99.90
43227;DHT22;28839;52.404;9.808;2024-02-04T06:41:38;7.90;99.90
43227;DHT22;28839;52.404;9.808;2024-02-04T06:48:32;8.00;99.90
43227;DHT22;28839;52.404;9.808;2024-02-04T06:55:27;7.90;99.90
43227;DHT22;28839;52.404;9.808;2024-02-04T07:02:20;7.90;99.90
43227;DHT22;28839;52.404;9.808;2024-02-04T07:09:14;7.90;99.90
43227;DHT22;28839;52.404;9.808;2024-02-04T07:16:09;8.00;99.90
43227;DHT22;28839;52.404;9.808;2024-02-04T07:23:04;7.90;99.90
43227;DHT22;28839;52.404;9.808;2024-02-04T07:29:58;7.90;99.90
43227;DHT22;28839;52.404;9.808;2024-02-04T07:36:53;7.90;99.90
43227;DHT22;28839;52.404;9.808;2024-02-04T07:43:46;7.80;99.90
43227;DHT22;28839;52.404;9.808;2024-02-04T07:50:40;7.90;99.90
43227;DHT22;28839;52.404;9.808;2024-02-04T07:57:35;7.90;99.90
43227;DHT22;28839;52.404;9.808;2024-02-04T08:04:29;8.00;99.90
43227;DHT22;28839;52.404;9.808;2024-02-04T08:11:23;8.10;99.90
43227;DHT22;28839;52.404;9.808;2024-02-04T08:18:18;8.20;99.90
43227;DHT22;28839;52.404;9.808;2024-02-04T08:25:12;8.30;99.90
43227;DHT22;28839;52.404;9.808;2024-02-04T08:32:06;8.40;99.90
43227;DHT22;28839;52.404;9.808;2024-02-04T08:39:01;8.60;99.90
43227;DHT22;28839;52.404;9.808;2024-02-04T08:45:55;8.60;99.90
43227;DHT22;28839;52.404;9.808;2024-02-04T08:52:49;8.60;99.90
43227;DHT22;28839;52.404;9.808;2024-02-04T08:59:44;8.60;99.90
43227;DHT22;28839;52.404;9.808;2024-02-04T09:06:38;8.60;99.90
43227;DHT22;28839;52.404;9.808;2024-02-04T09:13:32;8.60;99.90
43227;DHT22;28839;52.404;9.808;2024-02-04T09:20:27;8.50;99.90
43227;DHT22;28839;52.404;9.808;2024-02-04T09:27:20;8.50;99.90
43227;DHT22;28839;52.404;9.808;2024-02-04T09:34:14;8.40;99.90
43227;DHT22;28839;52.404;9.808;2024-02-04T09:41:09;8.50;99.90
43227;DHT22;28839;52.404;9.808;2024-02-04T09:48:04;8.60;99.90
43227;DHT22;28839;52.404;9.808;2024-02-04T09:55:00;8.50;99.90
43227;DHT22;28839;52.404;9.808;2024-02-04T10:01:55;8.40;99.90
43227;DHT22;28839;52.404;9.808;2024-02-04T10:08:50;8.50;99.90
43227;DHT22;28839;52.404;9.808;2024-02-04T10:15:43;8.50;99.90
43227;DHT22;28839;52.404;9.808;2024-02-04T10:22:39;8.40;99.90
43227;DHT22;28839;52.404;9.808;2024-02-04T10:29:33;8.50;99.90
43227;DHT22;28839;52.404;9.808;2024-02-04T10:36:29;8.40;99.90
43227;DHT22;28839;52.404;9.808;2024-02-04T10:43:24;8.50;99.90
43227;DHT22;28839;52.404;9.808;2024-02-04T10:50:21;8.60;99.90
43227;DHT22;28839;52.404;9.808;2024-02-04T10:57:20;8.90;99.90
43227;DHT22;28839;52.404;9.808;2024-02-04T11:04:17;8.80;99.90
43227;DHT22;28839;52.404;9.808;2024-02-04T11:11:11;8.80;99.90
43227;DHT22;28839;52.404;9.808;2024-02-04T11:25:53;8.90;99.90
43227;DHT22;28839;52.404;9.808;2024-02-04T11:32:47;9.00;99.90
43227;DHT22;28839;52.404;9.808;2024-02-04T11:39:48;9.10;99.90
43227;DHT22;28839;52.404;9.808;2024-02-04T11:46:47;9.20;99.90
43227;DHT22;28839;52.404;9.808;2024-02-04T11:53:41;9.30;99.90
43227;DHT22;28839;52.404;9.808;2024-02-04T12:00:35;9.40;99.70
43227;DHT22;28839;52.404;9.808;2024-02-04T12:07:30;9.40;99.90
43227;DHT22;28839;52.404;9.808;2024-02-04T12:14:25;9.40;99.40
43227;DHT22;28839;52.404;9.808;2024-02-04T12:21:18;9.60;96.70
43227;DHT22;28839;52.404;9.808;2024-02-04T12:28:14;9.50;99.90
43227;DHT22;28839;52.404;9.808;2024-02-04T12:35:08;9.40;99.80
43227;DHT22;28839;52.404;9.808;2024-02-04T12:42:06;9.40;99.90
43227;DHT22;28839;52.404;9.808;2024-02-04T12:49:02;9.30;99.40
43227;DHT22;28839;52.404;9.808;2024-02-04T12:55:58;9.30;99.90
43227;DHT22;28839;52.404;9.808;2024-02-04T13:02:52;9.20;99.90
43227;DHT22;28839;52.404;9.808;2024-02-04T13:09:57;9.20;99.90
43227;DHT22;28839;52.404;9.808;2024-02-04T13:16:51;9.20;99.90
43227;DHT22;28839;52.404;9.808;2024-02-04T13:23:45;9.20;99.90
43227;DHT22;28839;52.404;9.808;2024-02-04T13:30:40;9.10;99.90
43227;DHT22;28839;52.404;9.808;2024-02-04T13:37:33;9.10;99.90
43227;DHT22;28839;52.404;9.808;2024-02-04T13:44:27;9.10;99.90
43227;DHT22;28839;52.404;9.808;2024-02-04T13:51:22;9.20;99.90
43227;DHT22;28839;52.404;9.808;2024-02-04T13:58:16;9.10;99.90
43227;DHT22;28839;52.404;9.808;2024-02-04T14:05:11;9.20;99.90
43227;DHT22;28839;52.404;9.808;2024-02-04T14:12:07;9.20;99.90
43227;DHT22;28839;52.404;9.808;2024-02-04T14:19:01;9.20;99.90
43227;DHT22;28839;52.404;9.808;2024-02-04T14:25:55;9.20;99.90
43227;DHT22;28839;52.404;9.808;2024-02-04T14:32:50;9.10;99.90
43227;DHT22;28839;52.404;9.808;2024-02-04T14:39:44;9.10;99.90
43227;DHT22;28839;52.404;9.808;2024-02-04T14:46:38;9.10;99.90
43227;DHT22;28839;52.404;9.808;2024-02-04T14:53:33;9.10;99.90
43227;DHT22;28839;52.404;9.808;2024-02-04T15:00:27;9.10;99.90
43227;DHT22;28839;52.404;9.808;2024-02-04T15:07:21;9.00;99.90
43227;DHT22;28839;52.404;9.808;2024-02-04T15:14:16;9.00;99.90
43227;DHT22;28839;52.404;9.808;2024-02-04T15:21:11;9.00;99.90
43227;DHT22;28839;52.404;9.808;2024-02-04T15:28:06;8.80;99.90
43227;DHT22;28839;52.404;9.808;2024-02-04T15:35:03;8.70;99.90
43227;DHT22;28839;52.404;9.808;2024-02-04T15:41:57;8.80;99.90
43227;DHT22;28839;52.404;9.808;2024-02-04T15:48:52;8.80;99.90
43227;DHT22;28839;52.404;9.808;2024-02-04T15:55:48;8.70;99.90
43227;DHT22;28839;52.404;9.808;2024-02-04T16:02:42;8.60;99.90
43227;DHT22;28839;52.404;9.808;2024-02-04T16:09:37;8.60;99.90
43227;DHT22;28839;52.404;9.808;2024-02-04T16:16:35;8.50;99.90
43227;DHT22;28839;52.404;9.808;2024-02-04T16:23:30;8.40;99.90
43227;DHT22;28839;52.404;9.808;2024-02-04T16:30:26;8.40;99.90
43227;DHT22;28839;52.404;9.808;2024-02-04T16:37:21;8.40;99.90
43227;DHT22;28839;52.404;9.808;2024-02-04T16:44:15;8.30;99.90
43227;DHT22;28839;52.404;9.808;2024-02-04T16:51:09;8.20;99.90
43227;DHT22;28839;52.404;9.808;2024-02-04T16:58:07;8.10;99.90
43227;DHT22;28839;52.404;9.808;2024-02-04T17:05:02;8.10;99.90
43227;DHT22;28839;52.404;9.808;2024-02-04T17:11:56;8.10;99.90
43227;DHT22;28839;52.404;9.808;2024-02-04T17:18:55;8.00;99.90
43227;DHT22;28839;52.404;9.808;2024-02-04T17:25:59;8.00;99.90
43227;DHT22;28839;52.404;9.808;2024-02-04T17:32:53;8.00;99.90
43227;DHT22;28839;52.404;9.808;2024-02-04T17:39:48;8.00;99.90
43227;DHT22;28839;52.404;9.808;2024-02-04T17:46:42;8.00;99.90
43227;DHT22;28839;52.404;9.808;2024-02-04T17:53:36;7.90;99.90
43227;DHT22;28839;52.404;9.808;2024-02-04T18:00:31;7.90;99.90
43227;DHT22;28839;52.404;9.808;2024-02-04T18:07:25;7.80;99.90
43227;DHT22;28839;52.404;9.808;2024-02-04T18:14:19;7.90;99.90
43227;DHT22;28839;52.404;9.808;2024-02-04T18:21:17;7.90;99.90
43227;DHT22;28839;52.404;9.808;2024-02-04T18:28:11;7.90;99.90
43227;DHT22;28839;52.404;9.808;2024-02-04T18:35:05;8.00;99.90
43227;DHT22;28839;52.404;9.808;2024-02-04T18:42:01;8.10;99.90
43227;DHT22;28839;52.404;9.808;2024-02-04T18:48:55;8.10;99.90
43227;DHT22;28839;52.404;9.808;2024-02-04T18:55:51;8.20;99.90
43227;DHT22;28839;52.404;9.808;2024-02-04T19:02:46;8.20;99.90
43227;DHT22;28839;52.404;9.808;2024-02-04T19:09:40;8.30;99.90
43227;DHT22;28839;52.404;9.808;2024-02-04T19:16:33;8.30;99.90
43227;DHT22;28839;52.404;9.808;2024-02-04T19:23:29;8.40;99.90
43227;DHT22;28839;52.404;9.808;2024-02-04T19:30:24;8.50;99.90
43227;DHT22;28839;52.404;9.808;2024-02-04T19:37:18;8.60;99.90
43227;DHT22;28839;52.404;9.808;2024-02-04T19:44:13;8.70;99.90
43227;DHT22;28839;52.404;9.808;2024-02-04T19:51:07;8.70;99.90
43227;DHT22;28839;52.404;9.808;2024-02-04T19:58:01;8.90;99.90
43227;DHT22;28839;52.404;9.808;2024-02-04T20:04:56;9.10;99.90
43227;DHT22;28839;52.404;9.808;2024-02-04T20:11:49;9.20;99.90
43227;DHT22;28839;52.404;9.808;2024-02-04T20:18:43;9.40;99.90
43227;DHT22;28839;52.404;9.808;2024-02-04T20:25:39;9.50;99.90
43227;DHT22;28839;52.404;9.808;2024-02-04T20:32:35;9.60;99.90
43227;DHT22;28839;52.404;9.808;2024-02-04T20:39:28;9.70;99.90
43227;DHT22;28839;52.404;9.808;2024-02-04T20:46:24;9.70;99.90
43227;DHT22;28839;52.404;9.808;2024-02-04T20:53:19;9.80;99.90
43227;DHT22;28839;52.404;9.808;2024-02-04T21:00:13;9.80;99.90
43227;DHT22;28839;52.404;9.808;2024-02-04T21:07:11;9.90;99.90
43227;DHT22;28839;52.404;9.808;2024-02-04T21:14:04;9.90;99.90
43227;DHT22;28839;52.404;9.808;2024-02-04T21:20:58;9.90;99.90
43227;DHT22;28839;52.404;9.808;2024-02-04T21:27:53;9.90;99.90
43227;DHT22;28839;52.404;9.808;2024-02-04T21:34:47;9.90;99.90
43227;DHT22;28839;52.404;9.808;2024-02-04T21:41:41;10.00;99.90
43227;DHT22;28839;52.404;9.808;2024-02-04T21:48:36;10.00;99.90
43227;DHT22;28839;52.404;9.808;2024-02-04T21:55:30;10.00;99.90
43227;DHT22;28839;52.404;9.808;2024-02-04T22:02:24;10.10;99.90
43227;DHT22;28839;52.404;9.808;2024-02-04T22:09:19;10.10;99.90
43227;DHT22;28839;52.404;9.808;2024-02-04T22:16:13;10.10;99.90
43227;DHT22;28839;52.404;9.808;2024-02-04T22:23:06;10.10;99.90
43227;DHT22;28839;52.404;9.808;2024-02-04T22:30:02;10.10;99.90
43227;DHT22;28839;52.404;9.808;2024-02-04T22:36:56;10.20;99.90
43227;DHT22;28839;52.404;9.808;2024-02-04T22:43:49;10.20;99.90
43227;DHT22;28839;52.404;9.808;2024-02-04T22:50:44;10.30;99.90
43227;DHT22;28839;52.404;9.808;2024-02-04T22:57:38;10.20;99.90
43227;DHT22;28839;52.404;9.808;2024-02-04T23:04:32;10.30;99.90
43227;DHT22;28839;52.404;9.808;2024-02-04T23:11:29;10.20;99.90
43227;DHT22;28839;52.404;9.808;2024-02-04T23:18:23;10.20;99.90
43227;DHT22;28839;52.404;9.808;2024-02-04T23:25:16;10.20;99.90
43227;DHT22;28839;52.404;9.808;2024-02-04T23:32:12;10.20;99.90
43227;DHT22;28839;52.404;9.808;2024-02-04T23:39:06;10.20;99.90
43227;DHT22;28839;52.404;9.808;2024-02-04T23:46:00;10.30;99.90
43227;DHT22;28839;52.404;9.808;2024-02-04T23:52:55;10.30;99.90
43227;DHT22;28839;52.404;9.808;2024-02-04T23:59:49;10.20;99.90
